Time;durP1;ratioP1;P1;durP2;ratioP2;P2;SDS_P1;SDS_P2;PMS_P1;PMS_P2;Temp;Humidity;BMP_temperature;BMP_pressure;BME280_temperature;BME280_humidity;BME280_pressure;Samples;Min_cycle;Max_cycle;Signal;HPM_P1;HPM_P2
2023/12/07 00:01:06;;;;;;;;;33.75;32.75;;;;;5.58;100.00;101822.69;5019149;28;45527;-75
2023/12/07 00:03:31;;;;;;;;;38.25;33.25;;;;;5.56;100.00;101815.75;5017203;28;46812;-74
2023/12/07 00:05:57;;;;;;;;;38.75;35.00;;;;;5.59;100.00;101813.97;5040626;28;45376;-74
2023/12/07 00:08:22;;;;;;;;;43.25;34.25;;;;;5.57;100.00;101817.47;5038533;28;50237;-74
2023/12/07 00:10:47;;;;;;;;;36.00;33.25;;;;;5.53;100.00;101815.78;5035686;28;50845;-74
2023/12/07 00:13:13;;;;;;;;;53.25;32.50;;;;;5.48;100.00;101804.44;5014665;28;67122;-74
2023/12/07 00:15:38;;;;;;;;;46.50;32.00;;;;;5.56;100.00;101827.06;5039512;28;45324;-75
2023/12/07 00:18:03;;;;;;;;;43.00;34.00;;;;;5.47;100.00;101808.81;5034475;28;45451;-74
2023/12/07 00:20:29;;;;;;;;;38.75;29.25;;;;;5.55;100.00;101812.25;5040184;28;45477;-74
2023/12/07 00:22:55;;;;;;;;;34.75;31.25;;;;;5.49;100.00;101795.69;5023254;28;47085;-74
2023/12/07 00:25:21;;;;;;;;;44.25;34.00;;;;;5.54;100.00;101799.13;5037992;28;45459;-74
2023/12/07 00:27:47;;;;;;;;;42.00;36.50;;;;;5.40;100.00;101767.78;5039826;28;45357;-74
2023/12/07 00:30:12;;;;;;;;;37.50;33.50;;;;;5.42;100.00;101787.03;5031467;28;45543;-75
2023/12/07 00:32:38;;;;;;;;;43.25;33.50;;;;;5.49;100.00;101790.44;5021416;28;46831;-75
2023/12/07 00:35:03;;;;;;;;;47.75;29.25;;;;;5.50;100.00;101789.53;5038102;28;64782;-74
2023/12/07 00:37:29;;;;;;;;;39.25;33.25;;;;;5.42;100.00;101784.41;5035281;28;45506;-75
2023/12/07 00:39:54;;;;;;;;;38.25;30.50;;;;;5.42;100.00;101789.63;5035089;28;50277;-74
2023/12/07 00:42:19;;;;;;;;;46.00;37.25;;;;;5.35;100.00;101774.84;5039591;28;47138;-75
2023/12/07 00:44:44;;;;;;;;;18.25;14.50;;;;;5.40;100.00;101788.78;5039252;28;59744;-74
2023/12/07 00:47:10;;;;;;;;;36.25;29.75;;;;;5.46;100.00;101800.97;5040032;28;54216;-75
2023/12/07 00:49:40;;;;;;;;;31.25;23.50;;;;;5.42;100.00;101801.88;5039804;28;45458;-75
2023/12/07 00:52:06;;;;;;;;;35.75;25.00;;;;;5.31;100.00;101796.75;5039941;28;45567;-74
2023/12/07 00:54:31;;;;;;;;;33.75;29.50;;;;;5.39;100.00;101815.91;5019153;28;45700;-75
2023/12/07 00:56:57;;;;;;;;;36.00;29.00;;;;;5.32;100.00;101797.63;5039196;28;64187;-74
2023/12/07 00:59:23;;;;;;;;;39.00;34.75;;;;;5.27;100.00;101794.19;5020524;28;45619;-74
2023/12/07 01:01:48;;;;;;;;;45.00;33.50;;;;;5.22;100.00;101786.34;5021010;28;46575;-75
2023/12/07 01:04:13;;;;;;;;;33.00;30.00;;;;;5.36;100.00;101804.56;5039467;28;45258;-74
2023/12/07 01:06:39;;;;;;;;;36.00;24.25;;;;;5.31;100.00;101794.13;5021982;28;45334;-75
2023/12/07 01:09:04;;;;;;;;;34.00;25.00;;;;;5.24;100.00;101788.06;5038573;28;63688;-74
2023/12/07 01:11:31;;;;;;;;;36.75;31.00;;;;;5.19;100.00;101782.00;5035094;28;49907;-74
2023/12/07 01:13:56;;;;;;;;;28.25;25.25;;;;;5.27;100.00;101809.91;5039172;28;64647;-75
2023/12/07 01:16:21;;;;;;;;;24.25;24.25;;;;;5.29;100.00;101809.00;5035856;28;45293;-74
2023/12/07 01:18:47;;;;;;;;;37.75;28.50;;;;;5.28;100.00;101807.25;5019416;28;61446;-74
2023/12/07 01:21:12;;;;;;;;;35.75;29.25;;;;;5.25;100.00;101807.28;5018436;28;57367;-74
2023/12/07 01:23:37;;;;;;;;;31.75;26.50;;;;;5.18;100.00;101780.25;5018187;28;45309;-75
2023/12/07 01:26:03;;;;;;;;;34.75;30.00;;;;;5.28;100.00;101794.16;5040170;28;45285;-74
2023/12/07 01:28:28;;;;;;;;;29.00;26.75;;;;;5.24;100.00;101789.81;5021570;28;45819;-75
2023/12/07 01:30:54;;;;;;;;;29.00;26.00;;;;;5.23;100.00;101781.06;5038803;28;46147;-74
2023/12/07 01:33:19;;;;;;;;;25.75;23.25;;;;;5.25;100.00;101787.19;5011685;28;45381;-74
2023/12/07 01:35:45;;;;;;;;;33.00;23.75;;;;;5.24;100.00;101793.31;5036928;28;45372;-74
2023/12/07 01:38:10;;;;;;;;;25.25;22.75;;;;;5.21;100.00;101788.09;5019972;28;45347;-74
2023/12/07 01:40:35;;;;;;;;;26.25;24.25;;;;;5.11;100.00;101778.56;5037309;28;46330;-75
2023/12/07 01:43:01;;;;;;;;;40.00;26.75;;;;;5.12;100.00;101768.97;5012729;28;45534;-75
2023/12/07 01:45:26;;;;;;;;;29.50;23.75;;;;;5.08;100.00;101770.72;5032405;28;60583;-74
2023/12/07 01:47:54;;;;;;;;;30.50;25.75;;;;;5.03;100.00;101769.03;5035670;28;49449;-74
2023/12/07 01:50:23;;;;;;;;;20.75;17.50;;;;;5.06;100.00;101774.25;5001375;28;47060;-75
2023/12/07 01:52:52;;;;;;;;;36.00;30.00;;;;;5.03;100.00;101784.78;5034833;28;45392;-75
2023/12/07 01:55:17;;;;;;;;;33.00;25.00;;;;;5.02;100.00;101778.66;5039272;28;45444;-74
2023/12/07 01:57:44;;;;;;;;;30.00;28.50;;;;;5.04;100.00;101781.28;5021082;28;45441;-75
2023/12/07 02:00:12;;;;;;;;;33.25;22.75;;;;;4.99;100.00;101775.19;5020572;28;46843;-74
2023/12/07 02:02:38;;;;;;;;;22.50;22.50;;;;;4.95;100.00;101778.72;5036153;28;45293;-74
2023/12/07 02:05:04;;;;;;;;;29.50;26.00;;;;;5.02;100.00;101789.16;5020596;28;45543;-75
2023/12/07 02:07:30;;;;;;;;;18.75;18.75;;;;;5.07;100.00;101791.75;5038961;28;45565;-75
2023/12/07 02:09:58;;;;;;;;;27.75;24.00;;;;;5.07;100.00;101789.13;5021286;28;47622;-75
2023/12/07 02:12:23;;;;;;;;;30.50;29.00;;;;;5.02;100.00;101759.44;5026986;28;45360;-74
2023/12/07 02:14:50;;;;;;;;;34.50;27.50;;;;;4.90;100.00;101742.09;5039354;28;45730;-74
2023/12/07 02:17:26;;;;;;;;;21.75;17.50;;;;;5.10;100.00;101765.50;5016343;28;46015;-73
2023/12/07 02:20:21;;;;;;;;;31.25;22.75;;;;;5.05;100.00;101755.03;5034362;28;45335;-75
2023/12/07 02:22:54;;;;;;;;;29.75;24.50;;;;;5.03;100.00;101746.31;5032434;28;45312;-74
2023/12/07 02:25:25;;;;;;;;;33.75;26.50;;;;;4.98;100.00;101744.59;5020413;28;45605;-75
2023/12/07 02:27:50;;;;;;;;;23.50;22.00;;;;;5.11;100.00;101751.47;5038774;28;45627;-75
2023/12/07 02:30:16;;;;;;;;;26.00;24.00;;;;;5.08;100.00;101752.38;5038493;28;45382;-75
2023/12/07 02:32:44;;;;;;;;;30.00;25.25;;;;;5.11;100.00;101739.25;5019416;28;45381;-74
2023/12/07 02:35:14;;;;;;;;;34.75;23.50;;;;;5.12;100.00;101747.97;5037123;28;45361;-74
2023/12/07 02:37:46;;;;;;;;;25.75;23.50;;;;;5.18;100.00;101743.53;5007122;28;45726;-75
2023/12/07 02:40:14;;;;;;;;;26.75;25.25;;;;;5.20;100.00;101749.63;5037918;28;46151;-74
2023/12/07 02:42:41;;;;;;;;;29.25;24.00;;;;;5.21;100.00;101748.75;5019221;28;45417;-75
2023/12/07 02:45:07;;;;;;;;;26.25;18.50;;;;;5.22;100.00;101750.50;5012816;28;45313;-75
2023/12/07 02:47:33;;;;;;;;;29.25;21.50;;;;;5.14;100.00;101744.44;5025041;28;45471;-76
2023/12/07 02:49:58;;;;;;;;;31.50;26.25;;;;;5.20;100.00;101751.41;5036514;28;45439;-74
2023/12/07 02:52:24;;;;;;;;;26.75;22.25;;;;;5.20;100.00;101751.41;5033810;28;45445;-74
2023/12/07 02:54:49;;;;;;;;;24.50;24.50;;;;;5.25;100.00;101760.09;5019910;28;45298;-74
2023/12/07 02:57:15;;;;;;;;;28.50;23.25;;;;;5.25;100.00;101766.22;5035121;28;45356;-74
2023/12/07 02:59:40;;;;;;;;;31.75;26.50;;;;;5.27;100.00;101776.66;5027935;28;50255;-74
2023/12/07 03:02:06;;;;;;;;;30.75;24.75;;;;;5.28;100.00;101780.16;5033732;28;45451;-74
2023/12/07 03:04:31;;;;;;;;;26.50;23.25;;;;;5.26;100.00;101777.56;5023705;28;45319;-74
2023/12/07 03:06:58;;;;;;;;;31.75;26.75;;;;;5.24;100.00;101766.22;5043482;28;45242;-74
2023/12/07 03:09:23;;;;;;;;;20.75;17.75;;;;;5.15;100.00;101711.25;5043403;28;46867;-73
2023/12/07 03:11:48;;;;;;;;;20.25;17.00;;;;;5.24;100.00;101688.41;5042222;28;49228;-74
2023/12/07 03:14:14;;;;;;;;;36.00;24.00;;;;;5.19;100.00;101684.97;5038787;28;47740;-73
2023/12/07 03:16:39;;;;;;;;;20.75;17.75;;;;;5.11;100.00;101663.22;5037576;28;45493;-73
2023/12/07 03:19:04;;;;;;;;;25.50;19.75;;;;;5.20;100.00;101665.72;5029865;28;67225;-74
2023/12/07 03:21:29;;;;;;;;;27.50;23.75;;;;;5.17;100.00;101652.66;5041394;28;58884;-74
2023/12/07 03:23:55;;;;;;;;;28.75;26.75;;;;;5.12;100.00;101643.97;5041034;28;52092;-74
2023/12/07 03:26:20;;;;;;;;;27.00;22.25;;;;;5.08;100.00;101641.41;5032710;28;57871;-74
2023/12/07 03:28:46;;;;;;;;;31.00;23.25;;;;;5.14;100.00;101662.28;5038704;28;46331;-74
2023/12/07 03:31:11;;;;;;;;;25.50;23.00;;;;;5.15;100.00;101672.78;5041408;28;45485;-74
2023/12/07 03:33:38;;;;;;;;;21.50;21.50;;;;;5.15;100.00;101706.00;5041277;28;45459;-74
2023/12/07 03:36:04;;;;;;;;;25.75;20.75;;;;;5.07;100.00;101690.34;5035692;28;45576;-75
2023/12/07 03:38:29;;;;;;;;;28.50;19.25;;;;;5.11;100.00;101672.81;5018249;28;48074;-73
2023/12/07 03:40:54;;;;;;;;;36.00;26.50;;;;;5.12;100.00;101680.69;5029217;28;54731;-75
2023/12/07 03:43:20;;;;;;;;;27.50;21.00;;;;;5.12;100.00;101678.06;5041570;28;45585;-74
2023/12/07 03:45:46;;;;;;;;;28.25;23.00;;;;;5.18;100.00;101688.47;5035398;28;45303;-75
2023/12/07 03:48:11;;;;;;;;;24.50;22.25;;;;;5.12;100.00;101664.09;5037222;28;45284;-76
2023/12/07 03:50:36;;;;;;;;;24.25;24.25;;;;;5.09;100.00;101669.34;5036744;28;45265;-73
2023/12/07 03:53:02;;;;;;;;;26.00;18.75;;;;;5.11;100.00;101671.06;5036061;28;55300;-75
2023/12/07 03:55:27;;;;;;;;;30.25;25.75;;;;;5.18;100.00;101680.63;5041240;28;45281;-75
2023/12/07 03:57:53;;;;;;;;;23.50;22.25;;;;;5.00;100.00;101649.38;5032850;28;68706;-74
2023/12/07 04:00:18;;;;;;;;;29.75;24.00;;;;;5.06;100.00;101661.53;5032924;28;45543;-75
2023/12/07 04:02:43;;;;;;;;;27.50;23.00;;;;;5.14;100.00;101678.91;5016382;28;45531;-74
2023/12/07 04:05:08;;;;;;;;;29.50;19.25;;;;;5.11;100.00;101663.22;5042205;28;66305;-75
2023/12/07 04:07:34;;;;;;;;;23.00;22.00;;;;;5.13;100.00;101663.22;5021568;28;60775;-75
2023/12/07 04:09:59;;;;;;;;;25.00;21.75;;;;;5.12;100.00;101664.09;5040891;28;45350;-74
2023/12/07 04:12:25;;;;;;;;;27.00;23.00;;;;;5.10;100.00;101681.59;5039720;28;45502;-74
2023/12/07 04:14:51;;;;;;;;;21.00;19.00;;;;;5.19;100.00;101712.94;5040512;28;45321;-75
2023/12/07 04:17:17;;;;;;;;;25.00;23.50;;;;;5.19;100.00;101726.06;5039162;28;46717;-74
2023/12/07 04:19:42;;;;;;;;;25.75;20.25;;;;;5.19;100.00;101716.44;5022366;28;45383;-75
2023/12/07 04:22:07;;;;;;;;;27.00;19.25;;;;;5.19;100.00;101702.47;5021747;28;45442;-74
2023/12/07 04:24:33;;;;;;;;;19.25;18.00;;;;;5.22;100.00;101699.81;5022418;28;45379;-74
2023/12/07 04:26:58;;;;;;;;;29.00;21.25;;;;;5.23;100.00;101693.69;5022876;28;45483;-74
2023/12/07 04:29:23;;;;;;;;;13.25;12.50;;;;;5.25;100.00;101702.38;5010607;28;45598;-74
2023/12/07 04:31:49;;;;;;;;;24.50;20.00;;;;;5.21;100.00;101693.69;5023235;28;45478;-74
2023/12/07 04:34:14;;;;;;;;;22.50;17.75;;;;;5.22;100.00;101681.44;5027414;28;45427;-74
2023/12/07 04:36:39;;;;;;;;;20.25;19.00;;;;;5.10;100.00;101661.50;5022498;28;46954;-74
2023/12/07 04:39:05;;;;;;;;;21.25;19.50;;;;;5.26;100.00;101680.53;5025513;28;45535;-74
2023/12/07 04:41:30;;;;;;;;;25.50;18.50;;;;;5.24;100.00;101671.78;5022314;28;45327;-74
2023/12/07 04:43:55;;;;;;;;;24.00;19.75;;;;;5.23;100.00;101665.69;5010826;28;45339;-74
2023/12/07 04:46:21;;;;;;;;;22.00;20.50;;;;;5.22;100.00;101665.72;5017519;28;46970;-74
2023/12/07 04:48:46;;;;;;;;;27.25;23.75;;;;;5.25;100.00;101649.94;5022068;28;45243;-75
2023/12/07 04:51:11;;;;;;;;;26.50;19.50;;;;;5.27;100.00;101648.16;5020638;28;45450;-74
2023/12/07 04:53:37;;;;;;;;;23.75;21.75;;;;;5.26;100.00;101643.81;5038244;28;45333;-75
2023/12/07 04:56:02;;;;;;;;;18.75;12.50;;;;;5.27;100.00;101642.06;5022215;28;47579;-74
2023/12/07 04:58:27;;;;;;;;;18.50;17.50;;;;;5.22;100.00;101626.38;5038327;28;45331;-74
2023/12/07 05:00:53;;;;;;;;;20.25;17.25;;;;;5.27;100.00;101627.19;5039373;28;45277;-74
2023/12/07 05:03:18;;;;;;;;;15.00;11.75;;;;;5.28;100.00;101630.66;5018612;28;45323;-75
2023/12/07 05:05:43;;;;;;;;;24.25;23.25;;;;;5.22;100.00;101619.38;5018260;28;58411;-74
2023/12/07 05:08:09;;;;;;;;;23.00;17.00;;;;;5.27;100.00;101627.19;5018612;28;45533;-74
2023/12/07 05:10:34;;;;;;;;;27.75;18.00;;;;;5.26;100.00;101622.84;5017638;28;45425;-74
2023/12/07 05:13:00;;;;;;;;;20.25;17.75;;;;;5.28;100.00;101614.94;5021414;28;45566;-74
2023/12/07 05:15:25;;;;;;;;;22.00;19.00;;;;;5.18;100.00;101596.69;5014978;28;45399;-74
2023/12/07 05:17:50;;;;;;;;;24.75;16.75;;;;;5.21;100.00;101601.91;5037599;28;45347;-74
2023/12/07 05:20:16;;;;;;;;;21.00;18.25;;;;;5.25;100.00;101605.38;5022154;28;45368;-74
2023/12/07 05:22:41;;;;;;;;;23.50;21.25;;;;;5.26;100.00;101604.50;5021322;28;45647;-73
2023/12/07 05:25:07;;;;;;;;;25.25;19.75;;;;;5.30;100.00;101611.41;5018194;28;46419;-73
2023/12/07 05:27:32;;;;;;;;;24.00;18.25;;;;;5.31;100.00;101620.13;5033262;28;45371;-74
2023/12/07 05:29:57;;;;;;;;;27.25;23.25;;;;;5.25;100.00;101598.38;5013001;28;46253;-74
2023/12/07 05:32:23;;;;;;;;;23.25;17.25;;;;;5.35;100.00;101619.22;5015904;28;45497;-73
2023/12/07 05:34:48;;;;;;;;;23.00;19.75;;;;;5.23;100.00;101609.78;5038432;28;46103;-75
2023/12/07 05:37:13;;;;;;;;;20.00;19.50;;;;;5.34;100.00;101636.72;5019350;28;48369;-74
2023/12/07 05:39:39;;;;;;;;;25.50;19.00;;;;;5.37;100.00;101638.41;5021438;28;45567;-75
2023/12/07 05:42:04;;;;;;;;;16.00;16.00;;;;;5.38;100.00;101643.66;5036497;28;45309;-73
2023/12/07 05:44:30;;;;;;;;;21.50;17.75;;;;;5.39;100.00;101642.78;5037510;28;47591;-73
2023/12/07 05:46:57;;;;;;;;;20.50;17.75;;;;;5.39;100.00;101641.91;5017264;28;45275;-74
2023/12/07 05:49:23;;;;;;;;;26.50;21.75;;;;;5.41;100.00;101633.13;5037706;28;45354;-74
2023/12/07 05:51:49;;;;;;;;;24.00;18.75;;;;;5.38;100.00;101625.31;5012390;28;45509;-76
2023/12/07 05:54:14;;;;;;;;;19.00;16.75;;;;;5.41;100.00;101617.38;5019924;28;46336;-77
2023/12/07 05:56:40;;;;;;;;;20.25;17.75;;;;;5.42;100.00;101611.28;5021560;28;45405;-76
2023/12/07 05:59:06;;;;;;;;;23.50;17.25;;;;;5.43;100.00;101620.84;5020664;28;45340;-76
2023/12/07 06:01:31;;;;;;;;;21.00;15.75;;;;;5.38;100.00;101601.69;5018852;28;45489;-76
2023/12/07 06:03:57;;;;;;;;;18.50;17.75;;;;;5.40;100.00;101596.44;5019773;28;47089;-76
2023/12/07 06:06:23;;;;;;;;;23.75;18.75;;;;;5.43;100.00;101607.72;5018776;28;45420;-75
2023/12/07 06:08:48;;;;;;;;;21.50;14.75;;;;;5.44;100.00;101619.09;5015961;28;45905;-75
2023/12/07 06:11:13;;;;;;;;;22.75;22.00;;;;;5.39;100.00;101600.81;5034467;28;45448;-75
2023/12/07 06:13:39;;;;;;;;;12.50;11.00;;;;;5.45;100.00;101610.34;5020950;28;46991;-75
2023/12/07 06:16:04;;;;;;;;;15.75;13.50;;;;;5.36;100.00;101600.84;5013713;28;51550;-76
2023/12/07 06:18:30;;;;;;;;;19.25;17.75;;;;;5.43;100.00;101610.34;5033381;28;45285;-76
2023/12/07 06:20:55;;;;;;;;;20.75;17.50;;;;;5.41;100.00;101598.16;5035966;28;45552;-75
2023/12/07 06:23:21;;;;;;;;;18.75;18.50;;;;;5.41;100.00;101596.41;5029781;28;46995;-75
2023/12/07 06:25:47;;;;;;;;;22.75;17.50;;;;;5.41;100.00;101588.53;5008480;28;45428;-75
2023/12/07 06:28:12;;;;;;;;;23.00;20.25;;;;;5.40;100.00;101576.28;5015252;28;45433;-76
2023/12/07 06:30:38;;;;;;;;;19.25;16.50;;;;;5.39;100.00;101561.47;5012295;28;45594;-75
2023/12/07 06:33:03;;;;;;;;;24.50;18.25;;;;;5.38;100.00;101549.22;5008085;28;46588;-75
2023/12/07 06:35:30;;;;;;;;;22.00;21.50;;;;;5.37;100.00;101557.97;5015837;28;45447;-75
2023/12/07 06:37:56;;;;;;;;;18.50;18.50;;;;;5.38;100.00;101559.72;5013544;28;45548;-75
2023/12/07 06:40:21;;;;;;;;;22.00;21.50;;;;;5.37;100.00;101554.50;5023122;28;45524;-75
2023/12/07 06:42:48;;;;;;;;;27.75;21.00;;;;;5.42;100.00;101564.06;5025553;28;45527;-75
2023/12/07 06:45:14;;;;;;;;;20.00;17.75;;;;;5.43;100.00;101559.69;5025059;28;45586;-75
2023/12/07 06:47:42;;;;;;;;;18.00;16.25;;;;;5.41;100.00;101561.44;5017917;28;45334;-75
2023/12/07 06:50:09;;;;;;;;;28.50;22.50;;;;;5.45;100.00;101563.13;5011298;28;45487;-75
2023/12/07 06:52:39;;;;;;;;;23.00;21.00;;;;;5.42;100.00;101553.56;5015669;28;47529;-75
2023/12/07 06:55:06;;;;;;;;;22.50;17.25;;;;;5.48;100.00;101557.84;5013147;28;45337;-75
2023/12/07 06:57:31;;;;;;;;;20.75;17.50;;;;;5.50;100.00;101567.41;5024108;28;45325;-76
2023/12/07 06:59:56;;;;;;;;;21.75;18.50;;;;;5.51;100.00;101571.78;5026880;28;45312;-76
2023/12/07 07:02:23;;;;;;;;;18.25;15.25;;;;;5.53;100.00;101562.13;5012871;28;47724;-76
2023/12/07 07:04:49;;;;;;;;;19.00;17.25;;;;;5.48;100.00;101542.09;5016967;28;45392;-76
2023/12/07 07:07:15;;;;;;;;;20.75;18.00;;;;;5.54;100.00;101557.75;5018072;28;46398;-75
2023/12/07 07:09:40;;;;;;;;;18.75;15.25;;;;;5.53;100.00;101551.63;5027216;28;45840;-76
2023/12/07 07:12:05;;;;;;;;;18.75;15.75;;;;;5.53;100.00;101556.03;5019810;28;46377;-76
2023/12/07 07:14:31;;;;;;;;;19.50;17.00;;;;;5.54;100.00;101558.63;5009776;28;45473;-76
2023/12/07 07:16:56;;;;;;;;;22.25;19.00;;;;;5.47;100.00;101535.97;5014117;28;45536;-75
2023/12/07 07:19:21;;;;;;;;;21.00;19.75;;;;;5.52;100.00;101559.53;5032958;28;45594;-75
2023/12/07 07:21:47;;;;;;;;;18.50;17.50;;;;;5.51;100.00;101569.16;5019381;28;46705;-75
2023/12/07 07:24:12;;;;;;;;;22.75;17.50;;;;;5.38;100.00;101556.22;5027335;28;45463;-76
2023/12/07 07:26:38;;;;;;;;;18.00;17.50;;;;;5.52;100.00;101588.41;5018906;28;45297;-76
2023/12/07 07:29:03;;;;;;;;;19.00;18.00;;;;;5.50;100.00;101591.03;5011978;28;45754;-75
2023/12/07 07:31:30;;;;;;;;;17.50;12.75;;;;;5.41;100.00;101585.91;5018564;28;46856;-76
2023/12/07 07:33:55;;;;;;;;;20.25;18.75;;;;;5.50;100.00;101583.16;5025044;28;45248;-76
2023/12/07 07:36:20;;;;;;;;;18.75;17.00;;;;;5.45;100.00;101578.88;5020298;28;45403;-76
2023/12/07 07:38:46;;;;;;;;;19.75;19.00;;;;;5.46;100.00;101568.38;5023094;28;45602;-75
2023/12/07 07:41:11;;;;;;;;;21.75;18.75;;;;;5.46;100.00;101565.75;5016010;28;47318;-76
2023/12/07 07:43:37;;;;;;;;;22.50;18.00;;;;;5.46;100.00;101571.00;5009113;28;45319;-76
2023/12/07 07:46:06;;;;;;;;;22.00;17.00;;;;;5.44;100.00;101558.75;5014002;28;45338;-76
2023/12/07 07:48:32;;;;;;;;;19.25;16.00;;;;;5.43;100.00;101559.69;5012676;28;45542;-76
2023/12/07 07:50:58;;;;;;;;;21.25;18.00;;;;;5.40;100.00;101554.47;5019328;28;46301;-76
2023/12/07 07:53:24;;;;;;;;;21.25;16.25;;;;;5.37;100.00;101538.75;5013563;28;45417;-77
2023/12/07 07:55:49;;;;;;;;;16.25;14.75;;;;;5.39;100.00;101532.63;5027266;28;45333;-75
2023/12/07 07:58:14;;;;;;;;;17.50;16.75;;;;;5.42;100.00;101529.94;5029402;28;45241;-76
2023/12/07 08:00:40;;;;;;;;;20.50;17.75;;;;;5.41;100.00;101529.97;5020572;28;46425;-76
2023/12/07 08:03:05;;;;;;;;;15.50;14.50;;;;;5.43;100.00;101534.28;5019962;28;45617;-76
2023/12/07 08:05:30;;;;;;;;;13.75;13.75;;;;;5.44;100.00;101530.78;5022934;28;45473;-75
2023/12/07 08:07:56;;;;;;;;;25.25;22.25;;;;;5.48;100.00;101527.22;5030545;28;45295;-76
2023/12/07 08:10:21;;;;;;;;;16.25;16.25;;;;;5.49;100.00;101515.88;5010771;28;46600;-76
2023/12/07 08:12:46;;;;;;;;;13.75;13.75;;;;;5.45;100.00;101502.81;5029506;28;45245;-76
2023/12/07 08:15:12;;;;;;;;;15.75;13.50;;;;;5.50;100.00;101514.06;5030076;28;45426;-76
2023/12/07 08:17:41;;;;;;;;;21.50;17.25;;;;;5.50;100.00;101511.44;5014115;28;45519;-76
2023/12/07 08:20:08;;;;;;;;;15.75;15.75;;;;;5.45;100.00;101495.81;5013297;28;47016;-75
2023/12/07 08:22:34;;;;;;;;;19.00;17.00;;;;;5.52;100.00;101505.31;5023180;28;45372;-74
2023/12/07 08:25:00;;;;;;;;;20.00;18.25;;;;;5.55;100.00;101501.78;5014812;28;45270;-75
2023/12/07 08:27:25;;;;;;;;;18.00;14.25;;;;;5.56;100.00;101493.88;5025195;28;45565;-74
2023/12/07 08:29:50;;;;;;;;;20.50;15.50;;;;;5.51;100.00;101482.59;5021571;28;47406;-74
2023/12/07 08:32:18;;;;;;;;;19.50;13.75;;;;;5.46;100.00;101466.06;5012361;28;45489;-73
2023/12/07 08:34:44;;;;;;;;;20.25;18.25;;;;;5.61;100.00;101483.31;5020655;28;45337;-75
2023/12/07 08:37:09;;;;;;;;;15.00;14.50;;;;;5.59;100.00;101467.59;5013267;28;45467;-74
2023/12/07 08:39:34;;;;;;;;;17.50;14.25;;;;;5.54;100.00;101456.31;5032545;28;45488;-74
2023/12/07 08:42:01;;;;;;;;;11.25;9.50;;;;;5.69;100.00;101486.69;5016157;28;45600;-75
2023/12/07 08:44:26;;;;;;;;;16.75;13.25;;;;;5.72;100.00;101494.50;5015223;28;45425;-74
2023/12/07 08:46:51;;;;;;;;;15.75;11.50;;;;;5.74;100.00;101488.34;5024649;28;45638;-73
2023/12/07 08:49:17;;;;;;;;;11.75;10.75;;;;;5.75;100.00;101482.22;5015193;28;46495;-75
2023/12/07 08:51:42;;;;;;;;;18.50;13.25;;;;;5.75;100.00;101471.72;5028961;28;45465;-74
2023/12/07 08:54:07;;;;;;;;;18.50;17.00;;;;;5.80;100.00;101476.88;5011875;28;45369;-74
2023/12/07 08:56:33;;;;;;;;;14.75;12.00;;;;;5.88;100.00;101484.66;5011693;28;45463;-74
2023/12/07 08:58:58;;;;;;;;;17.75;13.75;;;;;5.90;100.00;101465.34;5027652;28;46430;-75
2023/12/07 09:01:23;;;;;;;;;13.25;13.25;;;;;5.90;100.00;101459.22;5008348;28;45446;-74
2023/12/07 09:03:49;;;;;;;;;16.25;13.75;;;;;5.89;100.00;101455.72;5034448;28;45498;-73
2023/12/07 09:06:14;;;;;;;;;18.00;14.50;;;;;6.01;100.00;101459.91;5022198;28;45367;-73
2023/12/07 09:08:39;;;;;;;;;4.00;3.00;;;;;5.98;100.00;101444.22;5021360;28;45452;-74
2023/12/07 09:11:05;;;;;;;;;12.00;10.25;;;;;6.11;100.00;101459.72;5014304;28;45465;-74
2023/12/07 09:13:30;;;;;;;;;12.00;12.00;;;;;6.16;100.00;101464.88;5026067;28;45418;-74
2023/12/07 09:15:56;;;;;;;;;13.50;13.00;;;;;6.12;100.00;101442.19;5015158;28;45437;-74
2023/12/07 09:18:21;;;;;;;;;18.50;17.00;;;;;6.23;100.00;101446.34;5015441;28;45538;-74
2023/12/07 09:20:46;;;;;;;;;15.75;13.00;;;;;6.24;100.00;101434.09;5038449;28;45324;-73
2023/12/07 09:23:12;;;;;;;;;12.00;12.00;;;;;6.26;100.00;101416.53;5017522;28;45462;-75
2023/12/07 09:25:38;;;;;;;;;17.25;14.50;;;;;6.29;100.00;101412.09;5038322;28;45373;-74
2023/12/07 09:28:04;;;;;;;;;13.00;11.50;;;;;6.34;100.00;101411.13;5021517;28;47001;-76
2023/12/07 09:30:29;;;;;;;;;14.50;12.75;;;;;6.40;100.00;101411.88;5020735;28;45261;-74
2023/12/07 09:32:55;;;;;;;;;12.75;12.75;;;;;6.45;100.00;101410.00;5020615;28;45321;-74
2023/12/07 09:35:20;;;;;;;;;13.50;13.00;;;;;6.51;100.00;101419.56;5021860;28;45317;-74
2023/12/07 09:37:46;;;;;;;;;15.00;13.50;;;;;6.54;100.00;101408.97;5018489;28;47496;-74
2023/12/07 09:40:17;;;;;;;;;15.75;13.25;;;;;6.57;100.00;101420.28;5019618;28;45381;-74
2023/12/07 09:42:42;;;;;;;;;16.25;13.50;;;;;6.52;100.00;101401.09;5020664;28;45317;-74
2023/12/07 09:45:08;;;;;;;;;14.25;12.50;;;;;6.64;100.00;101403.47;5017129;28;45595;-74
2023/12/07 09:47:35;;;;;;;;;14.00;13.00;;;;;6.69;100.00;101398.13;5014860;28;47197;-73
2023/12/07 09:50:02;;;;;;;;;12.00;11.75;;;;;6.73;100.00;101387.53;5038126;28;45599;-76
2023/12/07 09:52:27;;;;;;;;;13.50;13.00;;;;;6.76;100.00;101395.34;5021215;28;45488;-74
2023/12/07 09:54:56;;;;;;;;;12.50;11.25;;;;;6.79;100.00;101378.63;5017232;28;45400;-75
2023/12/07 09:57:22;;;;;;;;;15.25;12.00;;;;;6.80;100.00;101375.97;5017446;28;46963;-74
2023/12/07 09:59:48;;;;;;;;;16.00;14.00;;;;;6.81;100.00;101366.28;5016595;28;45374;-74
2023/12/07 10:02:14;;;;;;;;;12.25;11.75;;;;;6.80;100.00;101346.19;5015186;28;45373;-74
2023/12/07 10:04:39;;;;;;;;;12.00;11.00;;;;;6.86;100.00;101345.16;5017956;28;45723;-74
2023/12/07 10:07:08;;;;;;;;;11.75;11.00;;;;;6.85;100.00;101325.91;5017472;28;47199;-74
2023/12/07 10:09:37;;;;;;;;;18.50;12.00;;;;;6.90;100.00;101323.19;5014441;28;45520;-74
2023/12/07 10:12:04;;;;;;;;;14.00;8.00;;;;;6.97;100.00;101320.34;5010961;28;45392;-74
2023/12/07 10:14:29;;;;;;;;;12.33;11.00;;;;;7.03;100.00;101324.59;5011585;28;46425;-74
2023/12/07 10:16:56;;;;;;;;;12.67;10.67;;;;;7.06;100.00;101319.28;5014257;28;46897;-75
2023/12/07 10:19:22;;;;;;;;;14.00;13.00;;;;;7.10;100.00;101318.31;5017787;28;45640;-75
2023/12/07 10:21:51;;;;;;;;;14.33;11.33;;;;;7.06;100.00;101308.75;5015903;28;45344;-74
2023/12/07 10:24:18;;;;;;;;;13.25;13.25;;;;;7.09;100.00;101309.53;5012689;28;45238;-74
2023/12/07 10:26:45;;;;;;;;;14.00;11.67;;;;;7.15;100.00;101311.16;5018250;28;46288;-74
2023/12/07 10:29:11;;;;;;;;;20.50;14.50;;;;;7.16;100.00;101305.00;5017180;28;45397;-73
2023/12/07 10:31:37;;;;;;;;;10.33;10.33;;;;;7.20;100.00;101304.00;5012537;28;46012;-74
2023/12/07 10:34:04;;;;;;;;;12.00;11.33;;;;;7.18;100.00;101305.81;5028360;28;45378;-75
2023/12/07 10:36:29;;;;;;;;;11.00;11.00;;;;;7.18;99.64;101305.81;5013969;28;46951;-76
2023/12/07 10:38:55;;;;;;;;;14.25;13.25;;;;;7.19;98.61;101302.28;5029268;28;45698;-75
2023/12/07 10:41:23;;;;;;;;;17.75;12.75;;;;;7.20;100.00;101298.72;5017689;28;45309;-75
2023/12/07 10:43:51;;;;;;;;;10.25;8.50;;;;;7.18;100.00;101293.53;5016885;28;45320;-76
2023/12/07 10:46:19;;;;;;;;;13.67;12.33;;;;;7.19;99.85;101278.63;5016501;28;47686;-75
2023/12/07 10:48:48;;;;;;;;;13.00;13.00;;;;;7.16;97.30;101279.56;5009532;28;45465;-75
2023/12/07 10:51:51;;;;;;;;;12.00;12.00;;;;;7.19;97.17;101281.25;5016355;28;45267;-75
2023/12/07 10:54:21;;;;;;;;;13.67;12.00;;;;;7.18;100.00;101280.38;5017691;28;45676;-75
2023/12/07 10:56:50;;;;;;;;;14.33;13.00;;;;;7.20;100.00;101275.06;5016993;28;48103;-76
2023/12/07 10:59:16;;;;;;;;;13.33;11.33;;;;;7.24;100.00;101274.94;5014386;28;45432;-75
2023/12/07 11:01:43;;;;;;;;;10.33;10.33;;;;;7.25;97.88;101260.03;5006720;28;45480;-75
2023/12/07 11:04:13;;;;;;;;;10.00;8.33;;;;;7.26;93.69;101252.09;5014735;28;45608;-75